Terminal Aerodrome Forecast
Issued by NWS

Home | Current Version | Previous Version | Text Only | Print | Product List | Glossary On
Versions: 1 2 3 4 5 6 7 8 9 10 11 12 13 14 15 16 17 18 19 20
000
FTUS43 KDLH 282300
TAFHIB
TAF
KHIB 282333Z 2900/2924 21011G17KT P6SM SCT200
     FM290400 19009G16KT P6SM SCT030 BKN100 WS020/20045KT
     FM290800 20009G18KT 6SM -RA SCT025 OVC040 WS020/21045KT
      TEMPO 2909/2912 4SM -FZRAPL BKN015 OVC025
     FM291200 22010G17KT 6SM -RA SCT007 OVC012
     FM291500 29010G17KT 6SM -RASN BKN015 OVC040
     FM291700 31018G26KT P6SM BKN040=

USA.gov is the U.S. government's official web portal to all federal, state and local government web resources and services.